This is the latest recevied weather packets stored in our database for station/object WX7FGZ-5. If no packets are shown the sender has not sent any weather packets the latest 10 day(s).
| Time | Temp. | Humidity | Pressure | Rain* | Wind** | Luminosity | Snow |
|---|---|---|---|---|---|---|---|
| 1777628683 | 1.67° C | 46% | 1019.3 hPa | 0 mm | - | 0 W/m² | - |
| 1777628088 | 1.67° C | 47% | 1019.3 hPa | 0 mm | - | 0 W/m² | - |
| 1777628040 | 1.67° C | 47% | 1019.4 hPa | 0 mm | - | 0 W/m² | - |
| 1777627783 | 1.67° C | 47% | 1019.4 hPa | 0 mm | - | 0 W/m² | - |
| 1777627320 | 2.78° C | 43% | 1019.3 hPa | 0 mm | - | 0 W/m² | - |
| 1777627182 | 2.22° C | 44% | 1019.2 hPa | 0 mm | - | 0 W/m² | - |
| 1777626883 | 2.78° C | 43% | 1019.3 hPa | 0 mm | - | 0 W/m² | - |
| 1777626240 | 3.33° C | 42% | 1019.4 hPa | 0 mm | - | 0 W/m² | - |
| 1777626010 | 2.78° C | 42% | 1019.4 hPa | 0 mm | - | 0 W/m² | - |
| 1777625983 | 3.33° C | 42% | 1019.4 hPa | 0 mm | - | 0 W/m² | - |
| 1777625699 | 3.33° C | 42% | 1019.5 hPa | 0 mm | - | 0 W/m² | - |
| 1777625682 | 2.78° C | 42% | 1019.4 hPa | 0 mm | - | 0 W/m² | - |
| 1777625470 | 3.89° C | 40% | 1019.4 hPa | 0 mm | - | 0 W/m² | - |
| 1777625382 | 3.33° C | 42% | 1019.5 hPa | 0 mm | - | 0 W/m² | - |
| 1777625154 | 4.44° C | 39% | 1019.5 hPa | 0 mm | - | 0 W/m² | - |
| 1777625082 | 3.89° C | 40% | 1019.4 hPa | 0 mm | - | 0 W/m² | - |
| 1777624924 | 4.44° C | 39% | 1019.5 hPa | 0 mm | - | 0 W/m² | - |
| 1777624792 | 4.44° C | 39% | 1019.5 hPa | 0 mm | - | 0 W/m² | - |
| 1777624483 | 4.44° C | 39% | 1019.5 hPa | 0 mm | - | 0 W/m² | - |
| 1777624272 | 3.33° C | 41% | 1019.6 hPa | 0 mm | - | 0 W/m² | - |
| 1777624182 | 4.44° C | 39% | 1019.5 hPa | 0 mm | - | 0 W/m² | - |
| 1777623905 | 3.89° C | 40% | 1019.6 hPa | 0 mm | - | 0 W/m² | - |
| 1777623883 | 3.33° C | 41% | 1019.6 hPa | 0 mm | - | 0 W/m² | - |
| 1777623582 | 3.89° C | 40% | 1019.6 hPa | 0 mm | - | 0 W/m² | - |
| 1777623440 | 5.56° C | 36% | 1019.7 hPa | 0 mm | - | 0 W/m² | - |
* Rain latest hour (hover to see other rain measurements)
** Current wind speed in m/s (hover to see current wind gust speed)